Time;durP1;ratioP1;P1;durP2;ratioP2;P2;SDS_P1;SDS_P2;PMS_P1;PMS_P2;Temp;Humidity;BMP_temperature;BMP_pressure;BME280_temperature;BME280_humidity;BME280_pressure;Samples;Min_cycle;Max_cycle;Signal;HPM_P1;HPM_P2
2021/10/01 00:01:18;;;;;;;4.20;2.83;;;7.30;99.90;;;;;;4921888;29;20650;-92
2021/10/01 00:03:46;;;;;;;3.70;3.17;;;7.40;99.90;;;;;;4921981;29;21276;-92
2021/10/01 00:06:13;;;;;;;3.37;2.90;;;7.30;99.90;;;;;;4924528;29;20639;-91
2021/10/01 00:08:40;;;;;;;3.03;2.83;;;7.30;99.90;;;;;;4925100;29;20636;-91
2021/10/01 00:11:07;;;;;;;3.80;2.93;;;7.20;99.90;;;;;;4929709;29;21056;-90
2021/10/01 00:13:34;;;;;;;3.33;3.03;;;7.20;99.90;;;;;;4920900;29;20695;-91
2021/10/01 00:16:01;;;;;;;3.23;2.93;;;7.20;99.90;;;;;;4929272;29;20623;-90
2021/10/01 00:18:29;;;;;;;4.50;3.20;;;7.20;99.90;;;;;;4927862;29;20707;-90
2021/10/01 00:20:58;;;;;;;4.20;2.60;;;7.20;99.90;;;;;;4924365;29;20735;-91
2021/10/01 00:23:25;;;;;;;3.03;2.83;;;7.20;99.90;;;;;;4925317;29;20612;-90
2021/10/01 00:25:52;;;;;;;3.20;2.63;;;7.20;99.90;;;;;;4927780;29;20648;-89
2021/10/01 00:28:19;;;;;;;4.20;2.93;;;7.10;99.90;;;;;;4922190;29;21258;-91
2021/10/01 00:30:45;;;;;;;5.60;2.70;;;7.10;99.90;;;;;;4918014;29;20665;-93
2021/10/01 00:33:12;;;;;;;3.27;2.77;;;7.00;99.90;;;;;;4926591;29;20734;-91
2021/10/01 00:35:39;;;;;;;3.00;2.80;;;7.00;99.90;;;;;;4920547;29;20718;-93
2021/10/01 00:38:08;;;;;;;2.87;2.40;;;7.00;99.90;;;;;;4922323;29;20775;-91
2021/10/01 00:40:38;;;;;;;2.67;2.47;;;7.10;99.90;;;;;;4926211;29;20774;-92
2021/10/01 00:43:06;;;;;;;3.13;2.87;;;7.20;99.90;;;;;;4921104;29;20634;-92
2021/10/01 00:45:35;;;;;;;3.87;3.47;;;7.10;99.90;;;;;;4929467;28;20645;-91
2021/10/01 00:48:02;;;;;;;4.17;2.80;;;7.10;99.90;;;;;;4920649;29;20656;-92
2021/10/01 00:50:30;;;;;;;2.83;2.63;;;7.00;99.90;;;;;;4921310;29;21251;-92
2021/10/01 00:53:09;;;;;;;3.43;2.50;;;7.10;99.90;;;;;;4922954;29;20985;-92
2021/10/01 00:55:36;;;;;;;6.60;2.80;;;7.00;99.90;;;;;;4920507;29;20638;-92
2021/10/01 00:58:02;;;;;;;2.50;2.30;;;6.90;99.90;;;;;;4918362;29;20655;-91
2021/10/01 01:00:29;;;;;;;5.47;2.73;;;7.00;99.90;;;;;;4924058;29;20671;-92
2021/10/01 01:03:00;;;;;;;3.77;2.77;;;7.00;99.90;;;;;;4925290;29;20640;-92
2021/10/01 01:05:40;;;;;;;3.70;2.77;;;7.00;99.90;;;;;;4924984;29;20638;-92
2021/10/01 01:08:10;;;;;;;3.83;2.67;;;6.90;99.90;;;;;;4918060;29;20996;-91
2021/10/01 01:10:44;;;;;;;2.53;2.20;;;6.90;99.90;;;;;;4930827;28;20636;-93
2021/10/01 01:13:23;;;;;;;4.63;2.90;;;6.90;99.90;;;;;;4927447;28;20732;-91
2021/10/01 01:15:56;;;;;;;3.80;2.70;;;6.80;99.90;;;;;;4916117;29;20616;-92
2021/10/01 01:18:30;;;;;;;2.90;2.70;;;6.90;99.90;;;;;;4925007;29;20674;-93
2021/10/01 01:21:01;;;;;;;3.87;3.47;;;6.90;99.90;;;;;;4925540;29;20748;-92
2021/10/01 01:24:07;;;;;;;2.70;2.50;;;6.90;99.90;;;;;;4919963;29;20729;-93
2021/10/01 01:26:52;;;;;;;3.27;2.57;;;6.90;99.90;;;;;;4919161;29;20635;-92
2021/10/01 01:29:28;;;;;;;4.00;2.60;;;6.90;99.90;;;;;;4929008;29;21192;-91
2021/10/01 01:32:12;;;;;;;5.63;3.50;;;6.80;99.90;;;;;;4919832;29;21166;-92
2021/10/01 01:34:44;;;;;;;3.57;2.60;;;6.80;99.90;;;;;;4939411;28;20638;-92
2021/10/01 01:37:17;;;;;;;6.53;2.93;;;6.70;99.90;;;;;;4927775;29;20669;-93
2021/10/01 01:39:47;;;;;;;3.83;2.47;;;6.80;99.90;;;;;;4919498;29;20673;-92
2021/10/01 01:42:15;;;;;;;3.00;2.73;;;6.80;99.90;;;;;;4922126;29;20744;-93
2021/10/01 01:44:47;;;;;;;4.40;2.60;;;6.90;99.90;;;;;;4925969;29;20641;-91
2021/10/01 01:47:15;;;;;;;5.23;2.80;;;6.70;99.90;;;;;;4926412;29;20745;-92
2021/10/01 01:49:50;;;;;;;5.63;2.67;;;6.70;99.90;;;;;;4925652;29;20679;-92
2021/10/01 01:52:18;;;;;;;4.53;3.00;;;6.70;99.90;;;;;;4933774;29;20631;-91
2021/10/01 01:54:46;;;;;;;4.40;2.40;;;6.80;99.90;;;;;;4928197;29;20654;-93
2021/10/01 01:57:15;;;;;;;3.70;2.80;;;6.70;99.90;;;;;;4935209;29;20660;-91
2021/10/01 01:59:43;;;;;;;3.03;2.60;;;6.70;99.90;;;;;;4936732;29;20772;-92
2021/10/01 02:02:13;;;;;;;4.00;2.70;;;6.70;99.90;;;;;;4925686;29;20646;-93
2021/10/01 02:04:43;;;;;;;4.77;3.00;;;6.60;99.90;;;;;;4929357;29;21014;-93
2021/10/01 02:07:12;;;;;;;4.13;2.53;;;6.80;99.90;;;;;;4932057;29;20638;-92
2021/10/01 02:09:40;;;;;;;4.20;3.00;;;6.70;99.90;;;;;;4930725;29;20781;-93
2021/10/01 02:12:07;;;;;;;3.50;2.83;;;6.70;99.90;;;;;;4939316;29;21246;-93
2021/10/01 02:14:39;;;;;;;4.60;3.30;;;6.60;99.90;;;;;;4948473;29;20622;-93
2021/10/01 02:17:08;;;;;;;4.63;2.93;;;6.60;99.90;;;;;;4948403;29;20658;-93
2021/10/01 02:19:36;;;;;;;3.83;2.60;;;6.60;99.90;;;;;;4948556;29;20917;-93
2021/10/01 02:22:06;;;;;;;3.40;3.10;;;6.60;99.90;;;;;;4944457;29;20652;-92
2021/10/01 02:24:34;;;;;;;7.37;3.20;;;6.50;99.90;;;;;;4924702;29;20666;-91
2021/10/01 02:27:06;;;;;;;3.53;2.50;;;6.50;99.90;;;;;;4925361;29;20719;-91
2021/10/01 02:29:42;;;;;;;3.90;2.70;;;6.60;99.90;;;;;;4928981;29;20663;-93
2021/10/01 02:32:14;;;;;;;3.80;2.40;;;6.70;99.90;;;;;;4921147;29;20874;-93
2021/10/01 02:34:44;;;;;;;3.10;2.80;;;6.60;99.90;;;;;;4928149;29;20631;-90
2021/10/01 02:37:13;;;;;;;5.70;2.60;;;6.60;99.90;;;;;;4925359;29;21405;-92
2021/10/01 02:39:45;;;;;;;3.33;3.00;;;6.60;99.90;;;;;;4923190;29;20672;-92
2021/10/01 02:42:13;;;;;;;3.10;2.90;;;6.60;99.90;;;;;;4932019;29;20697;-92
2021/10/01 02:44:45;;;;;;;3.20;2.90;;;6.50;99.90;;;;;;4922445;29;20640;-92
2021/10/01 02:47:14;;;;;;;3.40;3.10;;;6.50;99.90;;;;;;4936277;29;20651;-90
2021/10/01 02:49:42;;;;;;;3.90;3.30;;;6.50;99.90;;;;;;4929838;29;20731;-92
2021/10/01 02:52:16;;;;;;;2.60;2.40;;;6.50;99.90;;;;;;4930423;29;20980;-93
2021/10/01 02:54:49;;;;;;;3.13;2.70;;;6.50;99.90;;;;;;4923906;29;20647;-92
2021/10/01 02:57:20;;;;;;;9.07;3.40;;;6.40;99.90;;;;;;4921300;29;21163;-89
2021/10/01 02:59:49;;;;;;;3.10;2.90;;;6.50;99.90;;;;;;4931164;29;20655;-93
2021/10/01 03:02:17;;;;;;;3.20;2.77;;;6.60;99.90;;;;;;4928111;29;20626;-90
2021/10/01 03:04:47;;;;;;;2.97;2.70;;;6.50;99.90;;;;;;4923175;29;20728;-90
2021/10/01 03:07:17;;;;;;;3.57;2.43;;;6.40;99.90;;;;;;4921846;29;20711;-91
2021/10/01 03:09:46;;;;;;;4.57;3.00;;;6.30;99.90;;;;;;4918618;29;20672;-91
2021/10/01 03:12:13;;;;;;;3.50;2.50;;;6.30;99.90;;;;;;4920469;29;20650;-92
2021/10/01 03:14:41;;;;;;;3.93;2.83;;;6.30;99.90;;;;;;4931997;29;20627;-91
2021/10/01 03:17:09;;;;;;;5.23;2.93;;;6.40;99.90;;;;;;4933863;29;20659;-93
2021/10/01 03:19:37;;;;;;;3.73;3.13;;;6.30;99.90;;;;;;4924289;29;21068;-92
2021/10/01 03:22:06;;;;;;;2.70;2.47;;;6.30;99.90;;;;;;4928888;29;20624;-92
2021/10/01 03:24:35;;;;;;;4.10;3.30;;;6.30;99.90;;;;;;4930268;29;21229;-92
2021/10/01 03:27:10;;;;;;;6.20;3.83;;;6.30;99.90;;;;;;4922886;29;20654;-92
2021/10/01 03:29:38;;;;;;;3.30;2.70;;;6.30;99.90;;;;;;4921117;29;21226;-90
2021/10/01 03:32:06;;;;;;;3.70;3.40;;;6.30;99.90;;;;;;4923614;29;20628;-92
2021/10/01 03:34:34;;;;;;;3.70;3.40;;;6.20;99.90;;;;;;4925419;29;20630;-91
2021/10/01 03:37:01;;;;;;;4.33;3.93;;;6.20;99.90;;;;;;4923794;29;20728;-91
2021/10/01 03:39:28;;;;;;;4.03;3.60;;;6.20;99.90;;;;;;4924570;29;20659;-90
2021/10/01 03:41:57;;;;;;;3.87;3.57;;;6.10;99.90;;;;;;4925253;29;20631;-91
2021/10/01 03:44:23;;;;;;;5.13;3.30;;;6.10;99.90;;;;;;4925163;29;20605;-91
2021/10/01 03:46:50;;;;;;;4.90;3.30;;;6.10;99.90;;;;;;4923841;29;20644;-92
2021/10/01 03:49:17;;;;;;;4.40;4.00;;;6.10;99.90;;;;;;4925530;29;20639;-91
2021/10/01 03:51:44;;;;;;;5.90;3.97;;;6.20;99.90;;;;;;4919653;29;20667;-92
2021/10/01 03:54:12;;;;;;;3.00;2.80;;;6.30;99.90;;;;;;4921493;29;20704;-91
2021/10/01 03:56:38;;;;;;;5.00;4.00;;;6.20;99.90;;;;;;4921372;29;20670;-92
2021/10/01 03:59:07;;;;;;;5.10;3.40;;;6.20;99.90;;;;;;4924081;29;21314;-92
2021/10/01 04:01:34;;;;;;;6.87;4.03;;;6.10;99.90;;;;;;4924535;29;20638;-91
2021/10/01 04:04:00;;;;;;;4.27;3.67;;;6.00;99.90;;;;;;4927651;29;20659;-91
2021/10/01 04:06:29;;;;;;;8.30;3.90;;;6.00;99.90;;;;;;4924286;29;20626;-93
2021/10/01 04:08:55;;;;;;;3.60;3.30;;;5.90;99.90;;;;;;4925212;29;20642;-91
2021/10/01 04:11:22;;;;;;;3.90;3.60;;;6.00;99.90;;;;;;4923718;29;20643;-92
2021/10/01 04:13:49;;;;;;;4.27;3.87;;;6.00;99.90;;;;;;4926287;29;20625;-92
2021/10/01 04:16:18;;;;;;;4.03;3.50;;;6.00;99.90;;;;;;4923755;29;21154;-90
2021/10/01 04:18:45;;;;;;;3.80;3.20;;;5.90;99.90;;;;;;4918417;29;21249;-92
2021/10/01 04:21:12;;;;;;;6.33;5.83;;;5.80;99.90;;;;;;4927688;29;20647;-92
2021/10/01 04:23:41;;;;;;;6.40;5.60;;;5.90;99.90;;;;;;4921836;29;20640;-91
2021/10/01 04:26:08;;;;;;;4.50;4.10;;;5.90;99.90;;;;;;4924491;29;20686;-91
2021/10/01 04:28:35;;;;;;;3.97;3.57;;;5.90;99.90;;;;;;4925589;29;20645;-90
2021/10/01 04:31:02;;;;;;;6.67;4.87;;;5.80;99.90;;;;;;4925312;29;20660;-92
2021/10/01 04:33:34;;;;;;;4.07;3.67;;;5.80;99.90;;;;;;4922203;29;20641;-91
2021/10/01 04:36:03;;;;;;;4.43;4.03;;;5.90;99.90;;;;;;4922113;29;20643;-92
2021/10/01 04:38:31;;;;;;;4.10;3.70;;;5.90;99.90;;;;;;4929451;29;20675;-91
2021/10/01 04:40:58;;;;;;;3.97;3.37;;;5.90;99.90;;;;;;4920775;29;20679;-91
2021/10/01 04:43:26;;;;;;;4.83;3.67;;;5.80;99.90;;;;;;4920282;29;20663;-91
2021/10/01 04:45:53;;;;;;;3.60;3.30;;;5.80;99.90;;;;;;4925028;29;20690;-92
2021/10/01 04:48:20;;;;;;;3.57;3.23;;;5.80;99.90;;;;;;4922779;29;20627;-91
2021/10/01 04:50:49;;;;;;;4.10;2.70;;;5.80;99.90;;;;;;4922437;29;20656;-91
2021/10/01 04:53:16;;;;;;;3.40;3.03;;;5.90;99.90;;;;;;4928589;29;20623;-91
2021/10/01 04:55:46;;;;;;;3.83;3.53;;;5.90;99.90;;;;;;4936299;28;20711;-91
2021/10/01 04:58:13;;;;;;;3.80;3.50;;;5.80;99.90;;;;;;4947798;28;20667;-90
2021/10/01 05:00:40;;;;;;;3.20;2.90;;;5.70;99.90;;;;;;4926844;29;20772;-94
2021/10/01 05:03:07;;;;;;;4.90;4.50;;;5.60;99.90;;;;;;4924771;29;20644;-91
2021/10/01 05:05:34;;;;;;;4.07;3.20;;;5.50;99.90;;;;;;4920359;29;20631;-92
2021/10/01 05:08:04;;;;;;;4.63;4.20;;;5.60;99.90;;;;;;4923348;29;20646;-91
2021/10/01 05:10:31;;;;;;;3.70;3.30;;;5.50;99.90;;;;;;4922030;29;21312;-92
2021/10/01 05:12:58;;;;;;;3.63;3.33;;;5.60;99.90;;;;;;4923221;29;20651;-91
2021/10/01 05:15:28;;;;;;;4.57;3.53;;;5.60;99.90;;;;;;4924195;29;20723;-91
2021/10/01 05:17:57;;;;;;;4.60;3.63;;;5.70;99.90;;;;;;4930023;29;21402;-92
2021/10/01 05:20:24;;;;;;;3.30;2.97;;;5.70;99.90;;;;;;4928426;29;20689;-91
2021/10/01 05:22:51;;;;;;;3.73;3.40;;;5.70;99.90;;;;;;4924053;29;20716;-92
2021/10/01 05:25:20;;;;;;;5.00;3.30;;;5.60;99.90;;;;;;4928483;29;20647;-92
2021/10/01 05:27:47;;;;;;;4.03;3.63;;;5.60;99.90;;;;;;4921360;29;21102;-91
2021/10/01 05:30:14;;;;;;;3.60;3.30;;;5.60;99.90;;;;;;4920568;29;20712;-91
2021/10/01 05:32:42;;;;;;;5.93;3.03;;;5.60;99.90;;;;;;4924734;29;20655;-93
2021/10/01 05:35:09;;;;;;;3.47;3.07;;;5.60;99.90;;;;;;4920803;29;20727;-92
2021/10/01 05:37:37;;;;;;;3.27;2.97;;;5.60;99.90;;;;;;4920626;29;20647;-92
2021/10/01 05:40:07;;;;;;;3.40;3.10;;;5.50;99.90;;;;;;4923411;29;20687;-91
2021/10/01 05:42:35;;;;;;;3.97;3.50;;;5.50;99.90;;;;;;4923470;29;20635;-92
2021/10/01 05:45:06;;;;;;;4.13;3.67;;;5.60;99.90;;;;;;4924736;29;20663;-92
2021/10/01 05:47:35;;;;;;;4.07;3.33;;;5.70;99.90;;;;;;4920631;29;20670;-93
2021/10/01 05:50:12;;;;;;;5.60;3.63;;;5.70;99.90;;;;;;4924195;29;20663;-93
2021/10/01 05:52:53;;;;;;;6.10;3.60;;;5.80;99.90;;;;;;4926697;29;20639;-92
2021/10/01 05:55:20;;;;;;;6.87;3.33;;;5.90;99.90;;;;;;4929813;29;21043;-92
2021/10/01 05:57:49;;;;;;;3.47;3.17;;;5.80;99.90;;;;;;4924949;29;20647;-92
2021/10/01 06:00:16;;;;;;;5.77;3.50;;;5.80;99.90;;;;;;4926866;29;20714;-92
2021/10/01 06:02:45;;;;;;;5.63;3.63;;;5.90;99.90;;;;;;4927017;29;20655;-92
2021/10/01 06:05:13;;;;;;;6.60;3.30;;;5.90;99.90;;;;;;4927525;29;20639;-94
2021/10/01 06:07:42;;;;;;;8.60;3.73;;;6.00;99.90;;;;;;4926826;29;20758;-92
2021/10/01 06:10:10;;;;;;;4.80;3.53;;;6.00;99.90;;;;;;4930772;29;20746;-94
2021/10/01 06:12:44;;;;;;;4.90;3.83;;;6.10;99.90;;;;;;4929827;29;20690;-92
2021/10/01 06:15:13;;;;;;;4.50;3.70;;;6.10;99.90;;;;;;4930859;29;20642;-93
2021/10/01 06:17:42;;;;;;;6.00;4.10;;;6.20;99.90;;;;;;4936505;29;20703;-93
2021/10/01 06:20:10;;;;;;;4.27;3.63;;;6.30;99.90;;;;;;4933838;29;20684;-92
2021/10/01 06:22:38;;;;;;;3.70;3.40;;;6.30;99.90;;;;;;4940778;29;20720;-94
2021/10/01 06:25:11;;;;;;;4.80;4.30;;;6.30;99.90;;;;;;4933389;29;20616;-93
2021/10/01 06:27:45;;;;;;;5.33;3.70;;;6.40;99.90;;;;;;4927838;29;20644;-92
2021/10/01 06:30:14;;;;;;;4.33;3.93;;;6.50;99.90;;;;;;4926923;29;21121;-92
2021/10/01 06:32:41;;;;;;;4.70;4.20;;;6.40;99.90;;;;;;4932125;29;20760;-92
2021/10/01 06:35:10;;;;;;;4.30;3.90;;;6.50;99.90;;;;;;4922291;29;21176;-92
2021/10/01 06:37:37;;;;;;;4.13;3.43;;;6.60;99.90;;;;;;4921034;29;20998;-91
2021/10/01 06:40:07;;;;;;;4.60;4.23;;;6.60;99.90;;;;;;4923211;29;20690;-91
2021/10/01 06:42:35;;;;;;;4.80;4.30;;;6.70;99.90;;;;;;4928871;29;20619;-90
2021/10/01 06:45:04;;;;;;;6.30;4.20;;;6.70;99.90;;;;;;4932809;29;21496;-91
2021/10/01 06:47:39;;;;;;;3.93;3.37;;;6.80;99.90;;;;;;4923050;29;20638;-90
2021/10/01 06:50:21;;;;;;;6.23;4.63;;;6.80;99.90;;;;;;4920997;29;20659;-91
2021/10/01 07:35:25;;;;;;;8.37;4.10;;;8.80;99.90;;;;;;4923709;29;20648;-90
2021/10/01 08:19:19;;;;;;;6.67;3.27;;;11.50;99.90;;;;;;4928973;29;20747;-91
2021/10/01 08:21:46;;;;;;;5.07;3.10;;;11.40;99.90;;;;;;4924469;29;21247;-90
2021/10/01 08:24:17;;;;;;;6.10;2.83;;;11.60;99.90;;;;;;4926389;29;20636;-91
2021/10/01 08:26:51;;;;;;;4.70;3.17;;;11.80;99.90;;;;;;4927577;29;20652;-90
2021/10/01 08:29:19;;;;;;;4.30;2.80;;;12.10;99.90;;;;;;4927037;29;21116;-90
2021/10/01 08:31:48;;;;;;;3.47;3.17;;;12.40;99.90;;;;;;4935922;29;20622;-91
2021/10/01 08:34:16;;;;;;;5.93;2.80;;;12.40;99.90;;;;;;4928300;29;20727;-91
2021/10/01 08:36:44;;;;;;;3.63;3.20;;;12.40;99.90;;;;;;4932010;29;20650;-91
2021/10/01 08:39:14;;;;;;;4.03;2.40;;;12.50;99.90;;;;;;4930201;29;20717;-92
2021/10/01 08:41:50;;;;;;;4.30;2.60;;;12.80;99.90;;;;;;4920571;29;20640;-91
2021/10/01 08:44:17;;;;;;;5.17;2.47;;;13.00;99.90;;;;;;4931647;29;20645;-91
2021/10/01 08:46:45;;;;;;;2.83;2.60;;;13.10;99.90;;;;;;4928574;29;21505;-91
2021/10/01 08:49:13;;;;;;;3.50;2.67;;;13.20;99.90;;;;;;4930748;29;20671;-92
2021/10/01 08:51:42;;;;;;;5.37;2.70;;;13.30;99.90;;;;;;4920842;29;20636;-92
2021/10/01 08:54:09;;;;;;;4.10;2.73;;;13.70;99.90;;;;;;4932064;29;20632;-90
2021/10/01 08:56:36;;;;;;;3.73;2.47;;;13.80;99.90;;;;;;4926861;29;21174;-91
2021/10/01 08:59:04;;;;;;;4.50;2.70;;;13.80;99.90;;;;;;4929617;29;20686;-91
2021/10/01 09:01:31;;;;;;;3.03;2.77;;;14.00;99.90;;;;;;4925531;29;20627;-91
2021/10/01 09:03:58;;;;;;;3.27;2.97;;;14.20;99.90;;;;;;4923138;29;20643;-91
2021/10/01 09:06:25;;;;;;;5.20;3.40;;;14.30;99.90;;;;;;4921837;29;20639;-90
2021/10/01 09:08:56;;;;;;;5.13;3.13;;;14.60;99.90;;;;;;4925237;29;20678;-90
2021/10/01 09:11:30;;;;;;;7.40;3.43;;;14.60;99.90;;;;;;4918609;29;20646;-92
2021/10/01 09:14:02;;;;;;;5.23;2.67;;;14.70;99.90;;;;;;4923379;29;20639;-91
2021/10/01 09:16:45;;;;;;;7.67;3.60;;;15.00;99.90;;;;;;4919321;29;21015;-91
2021/10/01 09:19:14;;;;;;;6.33;2.20;;;15.20;99.90;;;;;;4919094;29;20685;-92
2021/10/01 09:21:43;;;;;;;3.53;2.20;;;15.20;99.90;;;;;;4925745;29;20686;-91
2021/10/01 09:24:12;;;;;;;3.90;2.23;;;15.50;99.90;;;;;;4924944;29;20643;-91
2021/10/01 09:26:48;;;;;;;3.70;2.00;;;15.70;99.90;;;;;;4923915;29;20709;-91
2021/10/01 09:29:25;;;;;;;3.00;1.90;;;16.20;99.90;;;;;;4926894;29;20698;-91
2021/10/01 09:32:09;;;;;;;4.13;2.30;;;16.00;99.90;;;;;;4929166;29;20588;-92
2021/10/01 09:34:39;;;;;;;7.43;2.43;;;16.40;99.90;;;;;;4929249;29;20641;-92
2021/10/01 09:37:11;;;;;;;3.57;2.50;;;16.80;99.90;;;;;;4931754;29;20654;-91
2021/10/01 09:39:41;;;;;;;7.57;2.00;;;16.90;99.90;;;;;;4926499;29;20679;-91
2021/10/01 09:42:18;;;;;;;3.00;2.00;;;16.60;99.90;;;;;;4932175;29;20758;-90
2021/10/01 09:44:48;;;;;;;2.30;2.10;;;17.00;99.90;;;;;;4927809;29;20620;-91
2021/10/01 09:47:18;;;;;;;3.93;2.20;;;17.00;99.90;;;;;;4931623;29;20626;-91
2021/10/01 09:49:45;;;;;;;4.50;2.57;;;17.40;99.90;;;;;;4925753;29;20644;-92
2021/10/01 09:52:14;;;;;;;2.73;1.90;;;17.50;99.90;;;;;;4931062;29;20639;-90
2021/10/01 09:54:41;;;;;;;3.83;1.90;;;17.80;99.90;;;;;;4925066;29;20675;-91
2021/10/01 09:57:09;;;;;;;3.33;2.20;;;18.00;99.90;;;;;;4932039;29;20625;-91
2021/10/01 09:59:37;;;;;;;2.23;2.00;;;18.20;99.90;;;;;;4927294;29;20754;-92
2021/10/01 10:02:10;;;;;;;3.73;1.63;;;18.10;99.90;;;;;;4931387;29;21096;-91
2021/10/01 10:04:41;;;;;;;3.57;2.30;;;18.00;99.90;;;;;;4931059;29;20678;-91
2021/10/01 10:07:19;;;;;;;3.00;2.10;;;18.20;99.90;;;;;;4927176;29;20972;-91
2021/10/01 10:09:50;;;;;;;3.03;1.77;;;18.60;99.90;;;;;;4928211;29;20664;-93
2021/10/01 10:12:19;;;;;;;4.93;2.40;;;18.80;99.90;;;;;;4929654;29;20650;-92
2021/10/01 10:14:52;;;;;;;3.53;2.03;;;18.80;99.90;;;;;;4925041;29;20977;-93
2021/10/01 10:17:23;;;;;;;4.60;2.10;;;19.00;99.90;;;;;;4928578;29;20638;-91
2021/10/01 10:19:55;;;;;;;5.40;2.23;;;19.20;99.90;;;;;;4923254;29;20676;-92
2021/10/01 10:22:24;;;;;;;2.47;1.93;;;19.50;97.70;;;;;;4926461;29;20615;-91
2021/10/01 10:24:55;;;;;;;3.17;1.80;;;19.60;98.60;;;;;;4933179;29;20999;-92
2021/10/01 10:27:23;;;;;;;2.47;1.93;;;19.80;97.30;;;;;;4929270;29;20642;-91
2021/10/01 10:29:52;;;;;;;2.67;1.43;;;19.90;95.30;;;;;;4922758;29;20655;-92
2021/10/01 10:32:24;;;;;;;2.40;1.60;;;20.50;95.20;;;;;;4926041;29;20628;-91
2021/10/01 10:34:53;;;;;;;3.43;1.63;;;20.50;93.10;;;;;;4926703;29;20644;-91
2021/10/01 10:37:22;;;;;;;2.40;1.20;;;20.80;92.70;;;;;;4926344;29;20650;-91
2021/10/01 10:39:52;;;;;;;2.60;1.70;;;21.00;92.10;;;;;;4928028;29;20679;-92
2021/10/01 10:42:32;;;;;;;4.43;1.43;;;20.90;92.20;;;;;;4922276;29;21534;-91
2021/10/01 10:45:08;;;;;;;2.60;1.30;;;21.20;91.80;;;;;;4923212;29;20620;-92
2021/10/01 10:47:58;;;;;;;4.53;1.97;;;21.20;92.50;;;;;;4922159;29;20613;-92
2021/10/01 10:50:43;;;;;;;2.70;1.17;;;21.20;93.10;;;;;;4926233;29;20634;-91
2021/10/01 10:53:39;;;;;;;2.27;1.40;;;21.30;92.10;;;;;;4927319;29;20626;-92
2021/10/01 10:56:15;;;;;;;2.47;1.50;;;21.80;90.90;;;;;;4921459;29;20640;-90
2021/10/01 10:58:50;;;;;;;4.40;1.67;;;21.80;88.60;;;;;;4932125;29;20654;-91
2021/10/01 11:01:37;;;;;;;2.63;1.50;;;21.90;88.40;;;;;;4930642;29;20698;-91
2021/10/01 11:04:35;;;;;;;4.30;1.50;;;22.10;90.70;;;;;;4923108;29;20639;-91
2021/10/01 11:07:07;;;;;;;6.33;1.80;;;22.70;86.00;;;;;;4932338;29;20727;-92
2021/10/01 11:09:36;;;;;;;3.23;1.60;;;22.40;86.90;;;;;;4929973;29;20659;-92
2021/10/01 11:12:24;;;;;;;3.37;1.70;;;22.40;88.40;;;;;;4925530;29;20715;-92
2021/10/01 11:15:17;;;;;;;2.60;1.67;;;22.40;86.90;;;;;;4926700;29;20634;-92
2021/10/01 11:18:18;;;;;;;2.30;1.20;;;23.20;83.90;;;;;;4926484;29;21492;-93
2021/10/01 11:20:46;;;;;;;2.40;1.80;;;23.90;82.40;;;;;;4928407;29;20655;-92
2021/10/01 11:23:19;;;;;;;3.23;1.87;;;23.90;76.70;;;;;;4931593;29;20635;-92
2021/10/01 11:25:47;;;;;;;3.30;1.00;;;23.60;76.30;;;;;;4930288;29;20730;-91
2021/10/01 11:28:14;;;;;;;2.90;1.53;;;23.70;74.10;;;;;;4944259;28;20690;-92
2021/10/01 11:30:50;;;;;;;1.47;1.30;;;23.40;74.60;;;;;;4937709;29;20639;-91
2021/10/01 11:33:19;;;;;;;1.13;1.03;;;24.00;72.50;;;;;;4932063;29;20637;-91
2021/10/01 11:35:53;;;;;;;2.00;0.97;;;23.70;72.00;;;;;;4925902;29;20678;-92
2021/10/01 11:38:28;;;;;;;1.53;1.20;;;24.30;69.80;;;;;;4921795;29;20648;-92
2021/10/01 11:41:11;;;;;;;4.77;0.87;;;24.30;71.30;;;;;;4926455;29;21271;-92
2021/10/01 11:43:56;;;;;;;1.17;0.90;;;24.50;69.80;;;;;;4922475;29;20651;-93
2021/10/01 11:46:32;;;;;;;2.53;1.07;;;24.60;66.60;;;;;;4924009;29;20629;-93
2021/10/01 11:49:03;;;;;;;2.30;1.10;;;24.60;68.60;;;;;;4928781;29;20742;-92
2021/10/01 11:51:37;;;;;;;1.30;1.03;;;25.20;64.80;;;;;;4929171;29;21239;-92
2021/10/01 11:54:11;;;;;;;1.50;0.97;;;25.20;65.20;;;;;;4931194;29;20619;-94
2021/10/01 11:56:40;;;;;;;1.40;1.17;;;25.50;62.60;;;;;;4935727;29;20611;-92
2021/10/01 11:59:07;;;;;;;1.50;0.93;;;25.60;61.10;;;;;;4930011;29;20656;-91
2021/10/01 12:01:36;;;;;;;4.27;1.13;;;25.40;62.30;;;;;;4928667;29;20697;-92
2021/10/01 12:04:03;;;;;;;1.60;1.00;;;26.10;60.10;;;;;;4926030;29;20699;-92
2021/10/01 12:06:35;;;;;;;1.30;0.90;;;26.00;60.00;;;;;;4925142;29;21592;-91
2021/10/01 12:09:04;;;;;;;1.60;0.90;;;26.50;58.50;;;;;;4924683;29;20655;-92
2021/10/01 12:11:37;;;;;;;4.50;1.40;;;26.20;58.70;;;;;;4930031;29;21589;-91
2021/10/01 12:14:15;;;;;;;1.60;1.10;;;26.70;57.30;;;;;;4924198;29;20634;-94
2021/10/01 12:16:55;;;;;;;1.70;1.00;;;26.50;58.30;;;;;;4929501;29;20627;-92
2021/10/01 12:19:24;;;;;;;1.40;0.93;;;27.20;56.80;;;;;;4929465;29;20658;-94
2021/10/01 12:22:02;;;;;;;1.30;1.10;;;27.20;55.70;;;;;;4925987;29;21229;-92
2021/10/01 12:24:29;;;;;;;3.90;1.10;;;27.30;55.10;;;;;;4921025;29;21524;-94
2021/10/01 12:26:58;;;;;;;1.70;0.83;;;26.50;55.70;;;;;;4927587;29;21291;-92
2021/10/01 12:29:27;;;;;;;1.43;1.00;;;26.70;55.30;;;;;;4926415;29;20677;-93
2021/10/01 12:31:56;;;;;;;1.60;1.20;;;26.90;55.90;;;;;;4925287;29;20982;-91
2021/10/01 12:34:26;;;;;;;2.60;1.40;;;27.50;54.10;;;;;;4921983;29;20731;-91
2021/10/01 12:36:57;;;;;;;3.03;1.37;;;27.60;54.00;;;;;;4922208;29;20629;-92
2021/10/01 12:39:43;;;;;;;2.40;1.30;;;27.70;53.40;;;;;;4942003;29;20679;-92
2021/10/01 12:42:14;;;;;;;2.10;1.30;;;28.40;52.80;;;;;;4915059;29;20671;-92
2021/10/01 12:44:43;;;;;;;3.70;1.40;;;28.20;53.40;;;;;;4922998;29;21294;-92
2021/10/01 12:47:14;;;;;;;2.07;1.23;;;28.50;52.80;;;;;;4920498;29;20627;-93
2021/10/01 12:49:42;;;;;;;1.70;1.10;;;28.70;52.80;;;;;;4925406;29;20662;-92
2021/10/01 12:52:15;;;;;;;2.23;1.03;;;28.70;51.80;;;;;;4918039;29;20596;-91
2021/10/01 12:54:50;;;;;;;1.50;1.17;;;28.50;51.60;;;;;;4919722;29;20653;-92
2021/10/01 12:57:26;;;;;;;1.50;1.23;;;28.40;51.70;;;;;;4919374;29;20619;-91
2021/10/01 12:59:55;;;;;;;1.10;0.90;;;28.30;51.40;;;;;;4922023;29;21067;-90
2021/10/01 13:02:24;;;;;;;1.97;1.20;;;28.70;51.20;;;;;;4926582;29;20682;-91
2021/10/01 13:04:58;;;;;;;2.50;1.43;;;28.30;52.00;;;;;;4917449;29;20680;-91
2021/10/01 13:07:37;;;;;;;3.63;1.67;;;28.30;52.10;;;;;;4923588;29;20738;-90
2021/10/01 13:10:18;;;;;;;2.00;1.43;;;28.10;52.40;;;;;;4917737;29;20859;-91
2021/10/01 13:13:01;;;;;;;1.80;1.43;;;28.00;53.40;;;;;;4916978;29;20642;-91
2021/10/01 13:15:47;;;;;;;1.77;1.67;;;28.70;51.70;;;;;;4919754;28;21036;-92
2021/10/01 13:18:28;;;;;;;1.63;1.20;;;28.10;52.70;;;;;;4924332;29;20620;-92
2021/10/01 13:21:08;;;;;;;2.13;1.43;;;28.40;51.50;;;;;;4921131;29;20762;-91
2021/10/01 13:23:37;;;;;;;5.20;1.17;;;27.90;51.90;;;;;;4922457;29;20624;-93
2021/10/01 13:26:11;;;;;;;2.90;1.47;;;28.10;52.30;;;;;;4919842;29;20607;-93
2021/10/01 13:28:42;;;;;;;1.80;1.60;;;28.40;52.50;;;;;;4920693;29;20667;-93
2021/10/01 13:31:12;;;;;;;2.30;1.23;;;28.40;52.00;;;;;;4924436;29;20631;-93
2021/10/01 13:33:39;;;;;;;2.77;1.80;;;28.90;52.10;;;;;;4922337;29;20646;-93
2021/10/01 13:36:07;;;;;;;2.40;2.20;;;29.30;50.80;;;;;;4925014;29;20634;-94
2021/10/01 13:38:38;;;;;;;2.50;2.20;;;29.30;50.30;;;;;;4917053;29;20671;-96
2021/10/01 13:41:10;;;;;;;3.83;2.17;;;28.90;51.60;;;;;;4932017;29;20663;-94
2021/10/01 13:43:38;;;;;;;4.50;2.40;;;29.10;51.60;;;;;;4924077;29;20636;-95
2021/10/01 13:46:08;;;;;;;2.30;2.10;;;29.20;51.30;;;;;;4917607;29;21279;-95
2021/10/01 13:48:35;;;;;;;4.90;1.90;;;29.00;52.30;;;;;;4930686;29;20656;-94
2021/10/01 13:51:04;;;;;;;2.93;1.97;;;29.20;51.90;;;;;;4934266;29;20627;-94
2021/10/01 13:53:32;;;;;;;3.43;2.00;;;28.60;52.30;;;;;;4932935;29;20635;-94
2021/10/01 13:56:00;;;;;;;3.67;1.90;;;29.30;51.00;;;;;;4934529;29;20627;-93
2021/10/01 13:58:35;;;;;;;3.13;2.33;;;29.20;51.30;;;;;;4933197;29;20669;-94
2021/10/01 14:04:03;;;;;;;1.83;1.73;;;29.30;51.40;;;;;;5133012;27;21628;-93
2021/10/01 14:06:31;;;;;;;2.23;2.03;;;29.70;51.40;;;;;;5130999;27;20681;-95
2021/10/01 14:08:59;;;;;;;3.00;2.00;;;30.20;51.40;;;;;;5132861;27;20629;-94
2021/10/01 14:11:26;;;;;;;2.83;2.17;;;30.60;51.00;;;;;;5127787;27;20621;-94
2021/10/01 14:13:56;;;;;;;3.33;2.27;;;30.60;50.50;;;;;;5132962;27;20660;-95
2021/10/01 14:19:41;;;;;;;2.30;2.10;;;29.70;51.30;;;;;;5128971;27;20783;-93
2021/10/01 14:22:16;;;;;;;3.60;2.57;;;29.50;51.30;;;;;;5130441;27;20677;-93
2021/10/01 14:27:28;;;;;;;3.23;2.30;;;29.20;52.60;;;;;;5133918;27;20607;-93
2021/10/01 14:30:04;;;;;;;2.40;2.20;;;29.10;52.50;;;;;;5138610;27;21196;-94
2021/10/01 14:32:35;;;;;;;2.93;2.27;;;28.30;53.90;;;;;;5146702;27;20654;-95
2021/10/01 14:35:11;;;;;;;3.50;2.77;;;28.70;54.00;;;;;;5128253;27;20680;-94
2021/10/01 14:37:50;;;;;;;2.27;2.07;;;29.30;52.80;;;;;;5127081;27;20620;-93
2021/10/01 14:40:18;;;;;;;6.13;3.73;;;29.80;52.60;;;;;;5137799;27;21079;-94
2021/10/01 14:42:45;;;;;;;3.40;3.10;;;30.20;52.00;;;;;;5135586;27;20741;-94
2021/10/01 14:45:16;;;;;;;3.20;3.00;;;30.00;52.50;;;;;;5134489;27;20689;-93